Pagrindinis puslapis
METAR-TAF:

METAR-TAF

Oro uostai :

Abu Dabis, Jungtiniai Arabų Emyratai

platuma: 24-26N, ilguma: 054-39E, Aukštis: 16 m

Dabartinis oras

Ataskaita buvo paskelbta 53 minutes, ne 00:00 UTC
Vėjas 3 kt iš Rytų
Temperatūra 30°C
Drėgmė 66%
Slėgis 1003 hPa
Matomumas 10 km arba daugiau
nėra debesų žemiau 1500 m ir nėra kamuolinių lietaus debesų

METAR: OMAA 240000Z 09003KT CAVOK 30/23 Q1003 NOSIG

Laikas: 04:53 (00:53 UTC)

Prognozė

Ataskaita buvo paskelbta 1 valandą ir 53 minutes, ne 23:00 UTC
Prognozė galioja nuo 24 metu 00 UTC su 25 metu 06 UTC
Vėjas 2 kt nuo kintamojo kryptimis
Matomumas: 8000 m
Tapsmas
nuo 24 metu 00 UTC su 24 metu 02 UTC
Vėjas 6 kt iš Rytų/Pietryčių
Tapsmas
nuo 24 metu 07 UTC su 24 metu 09 UTC
Vėjas 11 kt iš Šiaurės/Šiaurės Vakarų
Tapsmas
nuo 24 metu 17 UTC su 24 metu 19 UTC
Vėjas 2 kt nuo kintamojo kryptimis
Tikimybė 30%
nuo 24 metu 01 UTC su 24 metu 04 UTC
Matomumas: 4000 m
migla

TAF: OMAA 232300Z 2400/2506 VRB02KT 8000 NSC BECMG 2400/2402 12006KT BECMG 2407/2409 34011KT BECMG 2417/2419 VRB02KT PROB30 2401/2404 4000 HZ

Orai ataskaitas ir orų prognozės (METAR, TAF).

turimą stotys yra geltonos ir raudonos taškus žemėlapyje.

Perkelti pele per norėdami pamatyti stoties vardą.

Tada spustelėkite, norėdami matyti oro stebėjimo ir prognozės.

Norėdami pakeisti žemėlapį: spustelėkite ant žalios mygtukų su juodo kryžiaus žemyn,; žalią mygtuką su brūkšneliu, jei norite nutolinti; arba žalių rodyklių gretimoms žemėlapius.


METAR-TAF: